Time;durP1;ratioP1;P1;durP2;ratioP2;P2;SDS_P1;SDS_P2;PMS_P1;PMS_P2;Temp;Humidity;BMP_temperature;BMP_pressure;BME280_temperature;BME280_humidity;BME280_pressure;Samples;Min_cycle;Max_cycle;Signal;HPM_P1;HPM_P2
2021/04/15 00:02:10;;;;;;;0.80;0.57;;;17.70;49.20;;;;;;5051581;28;20285;-68
2021/04/15 00:04:36;;;;;;;1.02;0.90;;;17.70;49.30;;;;;;5051855;28;20198;-68
2021/04/15 00:07:01;;;;;;;1.73;0.80;;;17.70;49.20;;;;;;5052153;28;20598;-70
2021/04/15 00:09:27;;;;;;;0.82;0.68;;;17.70;49.20;;;;;;5050171;28;20171;-69
2021/04/15 00:11:53;;;;;;;1.83;0.68;;;17.70;49.20;;;;;;5052081;28;20167;-69
2021/04/15 00:14:20;;;;;;;0.60;0.57;;;17.60;49.20;;;;;;5036771;28;20213;-69
2021/04/15 00:16:46;;;;;;;2.30;0.73;;;17.60;49.20;;;;;;5054060;28;20214;-69
2021/04/15 00:19:12;;;;;;;0.80;0.80;;;17.60;49.20;;;;;;5037971;28;20186;-70
2021/04/15 00:21:37;;;;;;;0.82;0.63;;;17.60;49.20;;;;;;5037906;28;20245;-69
2021/04/15 00:24:03;;;;;;;0.93;0.40;;;17.60;49.20;;;;;;5053793;28;20195;-69
2021/04/15 00:26:29;;;;;;;1.00;0.80;;;17.60;49.20;;;;;;5054297;28;20249;-68
2021/04/15 00:28:55;;;;;;;1.20;0.88;;;17.60;49.20;;;;;;5037856;28;20606;-69
2021/04/15 00:31:20;;;;;;;0.70;0.70;;;17.60;49.30;;;;;;5053731;28;20171;-67
2021/04/15 00:33:46;;;;;;;1.23;0.80;;;17.60;49.30;;;;;;5054320;28;20222;-68
2021/04/15 00:36:12;;;;;;;1.33;0.90;;;17.60;49.20;;;;;;5054240;28;20646;-67
2021/04/15 00:38:38;;;;;;;0.57;0.57;;;17.60;49.30;;;;;;5054638;28;20175;-69
2021/04/15 00:41:03;;;;;;;1.33;0.73;;;17.50;49.20;;;;;;5037816;28;20175;-71
2021/04/15 00:43:31;;;;;;;0.60;0.60;;;17.50;49.30;;;;;;5053587;28;20175;-71
2021/04/15 00:45:57;;;;;;;1.38;0.73;;;17.50;49.30;;;;;;5037747;28;20257;-69
2021/04/15 00:48:33;;;;;;;0.50;0.50;;;17.50;49.30;;;;;;5037301;28;20182;-68
2021/04/15 00:51:15;;;;;;;0.70;0.60;;;17.50;49.20;;;;;;5053509;28;20264;-67
2021/04/15 00:53:42;;;;;;;0.70;0.70;;;17.50;49.30;;;;;;5053786;28;20195;-68
2021/04/15 00:56:07;;;;;;;0.60;0.50;;;17.50;49.30;;;;;;5053982;28;20175;-70
2021/04/15 00:58:33;;;;;;;1.13;0.73;;;17.50;49.30;;;;;;5036610;28;20244;-68
2021/04/15 01:00:59;;;;;;;1.55;0.63;;;17.50;49.30;;;;;;5037351;28;20179;-72
2021/04/15 01:03:25;;;;;;;0.60;0.60;;;17.50;49.30;;;;;;5037189;28;20224;-71
2021/04/15 01:05:50;;;;;;;0.73;0.60;;;17.50;49.30;;;;;;5019902;28;20212;-68
2021/04/15 01:08:16;;;;;;;0.70;0.70;;;17.40;49.20;;;;;;5055094;28;20185;-68
2021/04/15 01:10:44;;;;;;;1.27;0.95;;;17.40;49.20;;;;;;5036998;28;20289;-69
2021/04/15 01:13:37;;;;;;;0.77;0.65;;;17.40;49.30;;;;;;5036555;28;20191;-69
2021/04/15 01:16:27;;;;;;;2.53;0.88;;;17.40;49.20;;;;;;5058727;28;20308;-69
2021/04/15 01:19:01;;;;;;;1.15;0.63;;;17.40;49.30;;;;;;5056189;28;20627;-69
2021/04/15 01:21:56;;;;;;;0.90;0.68;;;17.40;49.20;;;;;;5023753;28;20186;-69
2021/04/15 01:24:25;;;;;;;1.70;1.02;;;17.40;49.30;;;;;;5057552;28;20167;-69
2021/04/15 01:26:59;;;;;;;0.70;0.55;;;17.40;49.30;;;;;;5055758;28;20186;-69
2021/04/15 01:30:03;;;;;;;1.38;0.70;;;17.40;49.30;;;;;;5074360;28;20170;-68
2021/04/15 01:32:37;;;;;;;0.82;0.60;;;17.40;49.30;;;;;;5028795;28;20190;-69
2021/04/15 01:35:10;;;;;;;0.50;0.50;;;17.40;49.30;;;;;;5073657;28;20209;-68
2021/04/15 01:37:47;;;;;;;0.82;0.70;;;17.40;49.20;;;;;;5039948;28;20170;-69
2021/04/15 01:40:26;;;;;;;0.60;0.60;;;17.30;49.20;;;;;;5040070;28;20170;-69
2021/04/15 01:43:15;;;;;;;1.67;1.05;;;17.30;49.20;;;;;;5024815;28;20220;-70
2021/04/15 01:45:45;;;;;;;0.50;0.50;;;17.30;49.20;;;;;;5056627;28;20261;-69
2021/04/15 01:48:32;;;;;;;0.50;0.50;;;17.30;49.20;;;;;;5073564;28;20219;-70
2021/04/15 01:51:00;;;;;;;1.45;1.00;;;17.30;49.20;;;;;;5058803;28;20306;-68
2021/04/15 01:53:34;;;;;;;0.40;0.40;;;17.30;49.20;;;;;;5056266;28;20650;-68
2021/04/15 01:56:26;;;;;;;1.08;0.90;;;17.30;49.20;;;;;;5039584;28;20270;-69
2021/04/15 01:59:08;;;;;;;0.77;0.43;;;17.30;49.20;;;;;;5051736;28;20266;-69
2021/04/15 02:01:37;;;;;;;0.50;0.50;;;17.30;49.20;;;;;;5039849;28;20268;-69
2021/04/15 02:04:08;;;;;;;0.77;0.70;;;17.20;49.20;;;;;;5039758;28;20255;-67
2021/04/15 02:06:35;;;;;;;0.63;0.57;;;17.20;49.20;;;;;;5056293;28;20163;-69
2021/04/15 02:09:07;;;;;;;0.70;0.70;;;17.20;49.20;;;;;;5038718;28;20632;-69
2021/04/15 02:11:42;;;;;;;0.95;0.60;;;17.20;49.20;;;;;;5023252;28;20178;-69
2021/04/15 02:14:15;;;;;;;0.73;0.57;;;17.20;49.20;;;;;;5040186;28;20216;-68
2021/04/15 02:16:42;;;;;;;0.52;0.52;;;17.20;49.20;;;;;;5038798;28;20229;-69
2021/04/15 02:19:23;;;;;;;0.70;0.50;;;17.20;49.20;;;;;;5039340;28;20174;-69
2021/04/15 02:22:09;;;;;;;0.52;0.52;;;17.20;49.20;;;;;;5039303;28;20198;-68
2021/04/15 02:24:41;;;;;;;0.70;0.50;;;17.20;49.20;;;;;;5055276;28;20162;-68
2021/04/15 02:27:20;;;;;;;0.65;0.50;;;17.20;49.20;;;;;;5039756;28;20305;-68
2021/04/15 02:29:51;;;;;;;0.57;0.57;;;17.20;49.20;;;;;;5055071;28;20253;-68
2021/04/15 02:32:28;;;;;;;1.65;0.63;;;17.10;49.20;;;;;;5039010;28;20219;-68
2021/04/15 02:35:00;;;;;;;0.60;0.60;;;17.20;49.20;;;;;;5056482;28;20355;-69
2021/04/15 02:37:36;;;;;;;1.27;0.68;;;17.10;49.20;;;;;;5037419;28;20249;-68
2021/04/15 02:40:06;;;;;;;0.63;0.63;;;17.10;49.20;;;;;;5039388;28;20219;-69
2021/04/15 02:42:34;;;;;;;0.70;0.70;;;17.10;49.20;;;;;;5038816;28;20549;-70
2021/04/15 02:45:19;;;;;;;0.55;0.50;;;17.10;49.20;;;;;;5037869;28;20213;-70
2021/04/15 02:47:49;;;;;;;0.68;0.57;;;17.10;49.20;;;;;;5042166;28;20273;-69
2021/04/15 02:50:16;;;;;;;0.85;0.40;;;17.10;49.20;;;;;;5038608;28;20168;-70
2021/04/15 02:52:44;;;;;;;0.65;0.60;;;17.10;49.20;;;;;;5055097;28;20174;-68
2021/04/15 02:55:13;;;;;;;0.88;0.77;;;17.10;49.20;;;;;;5038729;28;20232;-68
2021/04/15 02:57:46;;;;;;;0.32;0.30;;;17.10;49.20;;;;;;5054220;28;20251;-68
2021/04/15 03:00:23;;;;;;;0.52;0.52;;;17.10;49.20;;;;;;5039048;28;20171;-69
2021/04/15 03:02:58;;;;;;;0.80;0.80;;;17.10;49.20;;;;;;5039653;28;20189;-70
2021/04/15 03:05:25;;;;;;;0.77;0.63;;;17.00;49.10;;;;;;5038621;28;20676;-70
2021/04/15 03:07:52;;;;;;;1.10;0.80;;;17.00;49.10;;;;;;5038425;28;20579;-69
2021/04/15 03:10:21;;;;;;;0.45;0.45;;;17.00;49.10;;;;;;5038515;28;20664;-69
2021/04/15 03:13:10;;;;;;;0.50;0.50;;;17.00;49.10;;;;;;5038024;28;20224;-68
2021/04/15 03:15:41;;;;;;;0.93;0.63;;;17.00;49.20;;;;;;5054222;28;20603;-68
2021/04/15 03:18:15;;;;;;;1.00;0.60;;;17.00;49.10;;;;;;5022140;28;20275;-69
2021/04/15 03:20:47;;;;;;;0.57;0.57;;;17.00;49.20;;;;;;5038155;28;20178;-70
2021/04/15 03:23:35;;;;;;;0.55;0.55;;;17.00;49.10;;;;;;5054846;28;20163;-69
2021/04/15 03:26:07;;;;;;;0.80;0.52;;;17.00;49.20;;;;;;5054018;28;20179;-68
2021/04/15 03:28:39;;;;;;;0.50;0.50;;;17.00;49.20;;;;;;5038507;28;20167;-69
2021/04/15 03:31:09;;;;;;;0.65;0.55;;;17.00;49.20;;;;;;5038244;28;20249;-69
2021/04/15 03:33:36;;;;;;;0.52;0.52;;;16.90;49.10;;;;;;5037563;28;20195;-67
2021/04/15 03:36:07;;;;;;;0.40;0.40;;;16.90;49.10;;;;;;5054547;28;20178;-69
2021/04/15 03:38:34;;;;;;;0.40;0.40;;;16.90;49.20;;;;;;5038025;28;20174;-69
2021/04/15 03:41:03;;;;;;;0.73;0.73;;;16.90;49.10;;;;;;5037554;28;20174;-69
2021/04/15 03:43:33;;;;;;;0.50;0.50;;;16.90;49.70;;;;;;5054302;28;20166;-70
2021/04/15 03:46:22;;;;;;;0.63;0.40;;;17.00;49.10;;;;;;5038018;28;20175;-71
2021/04/15 03:48:58;;;;;;;1.27;0.70;;;16.90;49.10;;;;;;5056395;28;20166;-69
2021/04/15 03:51:25;;;;;;;1.02;0.63;;;16.90;49.20;;;;;;5025432;28;20272;-68
2021/04/15 03:54:02;;;;;;;0.70;0.70;;;16.90;49.10;;;;;;5041490;28;20641;-68
2021/04/15 03:56:30;;;;;;;0.50;0.50;;;16.90;49.10;;;;;;5043051;28;20224;-69
2021/04/15 03:59:28;;;;;;;0.93;0.80;;;16.90;49.20;;;;;;5042020;28;20171;-69
2021/04/15 04:01:55;;;;;;;0.45;0.45;;;16.90;49.10;;;;;;5057743;28;20690;-69
2021/04/15 04:04:27;;;;;;;0.50;0.50;;;16.90;49.10;;;;;;5041431;28;20182;-70
2021/04/15 04:06:52;;;;;;;0.68;0.63;;;16.90;49.80;;;;;;5076034;28;20166;-69
2021/04/15 04:09:24;;;;;;;0.77;0.40;;;16.80;49.10;;;;;;5041233;28;20634;-69
2021/04/15 04:11:50;;;;;;;0.73;0.73;;;16.80;49.20;;;;;;5058135;28;20267;-69
2021/04/15 04:14:38;;;;;;;0.50;0.50;;;16.80;49.10;;;;;;5041395;28;20251;-68
2021/04/15 04:17:09;;;;;;;0.68;0.60;;;16.80;49.10;;;;;;4989485;28;20229;-68
2021/04/15 04:19:51;;;;;;;1.23;0.70;;;16.80;49.10;;;;;;5038507;28;20258;-69
2021/04/15 04:22:19;;;;;;;0.70;0.68;;;16.80;49.10;;;;;;5021231;28;20685;-69
2021/04/15 04:24:49;;;;;;;0.50;0.50;;;16.80;49.10;;;;;;5054629;28;20171;-69
2021/04/15 04:27:37;;;;;;;0.60;0.60;;;16.80;49.10;;;;;;5055851;28;20536;-68
2021/04/15 04:30:23;;;;;;;0.50;0.50;;;16.70;49.00;;;;;;5037972;28;20639;-69
2021/04/15 04:32:53;;;;;;;0.60;0.60;;;16.80;49.10;;;;;;5038840;28;20178;-68
2021/04/15 04:35:21;;;;;;;0.40;0.40;;;16.70;49.00;;;;;;5021317;28;20610;-68
2021/04/15 04:37:49;;;;;;;0.40;0.40;;;16.70;49.10;;;;;;5020599;28;20573;-68
2021/04/15 04:40:22;;;;;;;0.60;0.60;;;16.70;49.10;;;;;;5054333;28;20220;-69
2021/04/15 04:43:24;;;;;;;1.00;0.63;;;16.70;49.00;;;;;;5053677;28;20182;-69
2021/04/15 04:45:50;;;;;;;0.60;0.60;;;16.70;49.00;;;;;;4958392;28;20177;-69
2021/04/15 04:48:27;;;;;;;0.47;0.47;;;16.70;49.10;;;;;;5018225;28;20598;-70
2021/04/15 04:50:54;;;;;;;0.60;0.60;;;16.70;49.10;;;;;;5037374;28;20175;-68
2021/04/15 04:53:35;;;;;;;0.70;0.70;;;16.60;49.10;;;;;;5053710;28;20167;-68
2021/04/15 04:56:28;;;;;;;1.05;0.55;;;16.70;49.10;;;;;;5037561;28;20175;-69
2021/04/15 04:59:24;;;;;;;0.60;0.60;;;16.60;49.10;;;;;;5053327;28;20217;-69
2021/04/15 05:01:50;;;;;;;1.40;0.73;;;16.60;49.10;;;;;;5036817;28;20210;-68
2021/04/15 05:04:18;;;;;;;0.77;0.60;;;16.60;49.10;;;;;;5053194;28;20597;-70
2021/04/15 05:06:44;;;;;;;0.35;0.35;;;16.60;49.10;;;;;;5037532;28;20548;-69
2021/04/15 05:09:09;;;;;;;0.60;0.57;;;16.60;49.10;;;;;;5054055;28;20246;-69
2021/04/15 05:11:37;;;;;;;0.35;0.35;;;16.60;49.00;;;;;;5054139;28;20538;-68
2021/04/15 05:14:03;;;;;;;0.50;0.50;;;16.70;49.20;;;;;;5037087;28;20218;-69
2021/04/15 05:16:37;;;;;;;0.30;0.30;;;16.80;49.30;;;;;;5036764;28;20223;-69
2021/04/15 05:19:03;;;;;;;0.47;0.47;;;16.80;49.30;;;;;;5036938;28;20626;-68
2021/04/15 05:21:29;;;;;;;0.63;0.63;;;17.00;49.10;;;;;;5053332;28;20159;-68
2021/04/15 05:24:16;;;;;;;0.50;0.50;;;17.20;48.90;;;;;;5036896;28;20193;-68
2021/04/15 05:26:42;;;;;;;0.55;0.50;;;17.50;48.60;;;;;;5052550;28;20167;-69
2021/04/15 05:29:10;;;;;;;0.45;0.45;;;17.70;48.30;;;;;;5020333;28;20839;-68
2021/04/15 05:31:39;;;;;;;0.47;0.30;;;17.90;47.90;;;;;;5053178;28;20181;-68
2021/04/15 05:34:24;;;;;;;0.38;0.38;;;18.10;47.60;;;;;;5035999;28;20268;-67
2021/04/15 05:36:51;;;;;;;0.38;0.38;;;18.20;47.40;;;;;;5038099;28;20541;-68
2021/04/15 05:39:18;;;;;;;0.90;0.60;;;18.40;47.10;;;;;;5036148;28;20195;-69
2021/04/15 05:41:58;;;;;;;1.25;0.80;;;18.50;46.90;;;;;;5020002;28;20235;-69
2021/04/15 05:44:37;;;;;;;0.40;0.40;;;18.60;46.80;;;;;;5053016;28;20171;-71
2021/04/15 05:47:04;;;;;;;0.38;0.38;;;18.60;46.70;;;;;;5035784;28;20183;-70
2021/04/15 05:49:38;;;;;;;0.50;0.50;;;18.70;46.60;;;;;;5052742;28;20167;-69
2021/04/15 05:52:08;;;;;;;0.45;0.45;;;18.70;46.80;;;;;;5036619;28;20162;-67
2021/04/15 05:54:34;;;;;;;0.50;0.50;;;18.80;46.50;;;;;;5052086;28;20237;-69
2021/04/15 05:57:11;;;;;;;0.40;0.40;;;18.80;46.50;;;;;;5036237;28;20716;-68
2021/04/15 05:59:49;;;;;;;0.93;0.40;;;18.80;46.40;;;;;;5036176;28;20262;-69
2021/04/15 06:02:20;;;;;;;0.90;0.43;;;18.80;46.40;;;;;;5053164;28;20246;-68
2021/04/15 06:05:11;;;;;;;0.40;0.40;;;18.70;46.50;;;;;;5052692;28;20175;-71
2021/04/15 06:07:37;;;;;;;0.40;0.40;;;18.60;47.20;;;;;;5038079;28;20273;-69
2021/04/15 06:10:04;;;;;;;0.30;0.30;;;18.50;46.80;;;;;;5052550;28;20603;-69
2021/04/15 06:12:47;;;;;;;0.30;0.30;;;18.50;46.90;;;;;;5019046;28;20174;-69
2021/04/15 06:15:19;;;;;;;0.88;0.40;;;18.50;47.00;;;;;;5053251;28;20203;-68
2021/04/15 06:17:50;;;;;;;0.32;0.32;;;18.40;47.00;;;;;;5035933;28;20267;-68
2021/04/15 06:20:15;;;;;;;0.63;0.30;;;18.40;47.10;;;;;;5036119;28;20167;-68
2021/04/15 06:22:43;;;;;;;0.40;0.40;;;18.30;47.30;;;;;;5052672;28;20171;-69
2021/04/15 06:25:21;;;;;;;0.30;0.30;;;18.20;47.30;;;;;;5019298;28;20229;-68
2021/04/15 06:27:48;;;;;;;0.30;0.30;;;18.20;47.40;;;;;;5036105;28;20170;-68
2021/04/15 06:30:46;;;;;;;0.50;0.50;;;18.10;47.50;;;;;;5035321;28;20304;-68
2021/04/15 06:33:15;;;;;;;0.60;0.40;;;18.10;47.60;;;;;;5051377;28;20603;-67
2021/04/15 06:35:43;;;;;;;0.80;0.60;;;18.10;47.80;;;;;;5034664;28;20187;-65
2021/04/15 06:38:36;;;;;;;0.30;0.30;;;18.10;47.90;;;;;;5035253;28;20704;-67
2021/04/15 06:41:36;;;;;;;0.57;0.45;;;18.00;47.90;;;;;;5052002;28;20514;-66
2021/04/15 06:44:55;;;;;;;0.70;0.70;;;18.20;48.00;;;;;;5052328;28;20174;-68
2021/04/15 06:47:41;;;;;;;3.30;0.70;;;18.20;48.10;;;;;;4972183;28;20189;-63
2021/04/15 06:50:25;;;;;;;1.00;0.80;;;18.10;48.40;;;;;;5051278;28;20529;-72
2021/04/15 06:53:33;;;;;;;1.67;0.80;;;18.10;48.70;;;;;;5052890;28;20185;-70
2021/04/15 06:56:32;;;;;;;7.57;1.20;;;18.00;48.70;;;;;;5036803;28;20200;-74
2021/04/15 06:59:23;;;;;;;3.65;0.80;;;18.00;49.10;;;;;;5052723;28;20171;-70
2021/04/15 07:02:01;;;;;;;2.10;0.90;;;17.90;49.30;;;;;;5071844;28;20178;-69
2021/04/15 07:05:00;;;;;;;1.98;0.80;;;18.00;49.60;;;;;;5071857;28;20219;-70
2021/04/15 07:07:26;;;;;;;2.72;1.02;;;18.00;49.70;;;;;;5053221;28;20239;-70
2021/04/15 07:09:55;;;;;;;1.75;0.70;;;18.00;49.70;;;;;;5071392;28;20163;-70
2021/04/15 07:12:48;;;;;;;0.85;0.70;;;18.00;49.70;;;;;;5071868;28;20178;-71
2021/04/15 07:15:41;;;;;;;2.15;1.00;;;18.00;49.70;;;;;;5072602;28;20210;-71
2021/04/15 07:18:12;;;;;;;2.65;0.90;;;18.10;49.90;;;;;;5089535;28;20222;-72
2021/04/15 07:21:15;;;;;;;2.78;0.80;;;18.00;49.80;;;;;;5092351;28;20174;-68
2021/04/15 07:24:18;;;;;;;2.33;0.95;;;18.10;50.00;;;;;;5091597;28;20230;-68
2021/04/15 07:26:56;;;;;;;3.70;0.98;;;18.10;49.90;;;;;;5073902;28;20173;-69
2021/04/15 07:29:34;;;;;;;1.90;0.73;;;18.20;49.90;;;;;;5092221;28;20170;-68
2021/04/15 07:32:38;;;;;;;1.83;0.90;;;18.30;49.80;;;;;;5091795;28;20253;-67
2021/04/15 07:35:25;;;;;;;0.95;0.70;;;18.40;49.70;;;;;;5076987;28;20220;-66
2021/04/15 07:38:18;;;;;;;3.40;0.80;;;18.40;49.60;;;;;;5092132;28;20219;-66
2021/04/15 07:40:52;;;;;;;2.67;1.15;;;18.40;49.60;;;;;;5091966;28;20181;-67
2021/04/15 07:43:21;;;;;;;2.08;0.70;;;18.40;49.60;;;;;;5091648;28;20173;-68
2021/04/15 07:46:07;;;;;;;1.15;0.70;;;18.30;49.60;;;;;;5091213;28;20202;-68
2021/04/15 07:48:53;;;;;;;1.52;0.57;;;18.30;49.80;;;;;;5089771;28;20165;-67
2021/04/15 07:51:38;;;;;;;0.93;0.80;;;18.30;49.80;;;;;;5062017;28;20177;-66
2021/04/15 07:54:12;;;;;;;0.85;0.68;;;18.30;50.10;;;;;;5071354;28;20209;-66
2021/04/15 07:57:15;;;;;;;1.80;0.95;;;18.30;50.10;;;;;;5072926;28;20159;-67
2021/04/15 08:00:04;;;;;;;3.00;0.77;;;18.30;50.00;;;;;;5072531;28;20213;-67
2021/04/15 08:02:40;;;;;;;0.88;0.65;;;18.30;50.00;;;;;;5077109;28;20162;-67
2021/04/15 08:05:27;;;;;;;1.38;0.60;;;18.30;50.00;;;;;;5074972;28;20177;-67
2021/04/15 08:08:30;;;;;;;1.45;0.70;;;18.30;50.00;;;;;;5091495;28;20177;-67
2021/04/15 08:11:05;;;;;;;1.17;0.60;;;18.30;50.00;;;;;;5091984;28;20651;-66
2021/04/15 08:13:37;;;;;;;1.30;0.60;;;18.30;50.10;;;;;;5073778;28;20165;-66
2021/04/15 08:16:05;;;;;;;1.30;0.80;;;18.30;50.30;;;;;;5091725;28;20219;-61
2021/04/15 08:18:49;;;;;;;2.58;0.90;;;18.20;50.20;;;;;;5091781;28;20209;-64
2021/04/15 08:21:41;;;;;;;1.15;0.70;;;18.20;50.20;;;;;;5073567;28;20188;-63
2021/04/15 08:24:30;;;;;;;1.98;0.88;;;18.20;50.20;;;;;;5041198;28;20170;-63
2021/04/15 08:27:29;;;;;;;2.40;0.60;;;18.20;50.10;;;;;;5074090;28;20672;-64
2021/04/15 08:30:14;;;;;;;1.20;0.63;;;18.20;50.00;;;;;;5091395;28;20154;-64
2021/04/15 08:32:53;;;;;;;1.23;0.70;;;18.30;50.00;;;;;;5073961;28;20563;-65
2021/04/15 08:35:39;;;;;;;1.45;0.73;;;18.20;50.60;;;;;;5075883;28;20220;-65
2021/04/15 08:38:11;;;;;;;3.28;0.70;;;18.20;50.00;;;;;;5094959;28;20189;-64
2021/04/15 08:41:08;;;;;;;2.33;0.95;;;18.30;50.10;;;;;;5077293;28;20492;-64
2021/04/15 08:44:00;;;;;;;3.58;0.73;;;18.20;50.00;;;;;;5079456;28;20177;-69
2021/04/15 08:46:53;;;;;;;3.55;1.02;;;18.20;50.20;;;;;;5080011;28;20843;-66
2021/04/15 08:49:30;;;;;;;2.63;0.75;;;18.10;50.00;;;;;;5062307;28;20166;-63
2021/04/15 08:52:19;;;;;;;5.88;0.73;;;18.00;50.00;;;;;;5061307;28;20603;-67
2021/04/15 08:55:07;;;;;;;2.40;0.70;;;18.00;50.10;;;;;;5079487;28;20308;-67
2021/04/15 08:57:51;;;;;;;2.25;0.90;;;18.00;50.10;;;;;;5094305;28;20166;-67
2021/04/15 09:00:31;;;;;;;1.48;0.80;;;18.00;50.10;;;;;;5095214;28;20173;-66
2021/04/15 09:03:31;;;;;;;1.83;0.88;;;18.10;49.90;;;;;;5076299;28;20215;-67
2021/04/15 09:06:23;;;;;;;5.00;0.80;;;18.10;49.60;;;;;;5101495;28;20528;-64
2021/04/15 09:09:11;;;;;;;3.00;0.98;;;18.10;49.60;;;;;;5095029;28;20695;-67
2021/04/15 09:12:01;;;;;;;4.25;1.10;;;18.10;49.80;;;;;;5060804;28;20256;-67
2021/04/15 09:14:52;;;;;;;3.85;1.27;;;18.20;49.70;;;;;;5076288;28;20290;-66
2021/04/15 09:17:26;;;;;;;3.65;1.05;;;18.10;49.90;;;;;;5093986;28;20237;-67
2021/04/15 09:20:04;;;;;;;5.07;0.90;;;18.10;50.30;;;;;;5076312;28;20176;-65
2021/04/15 09:22:50;;;;;;;3.63;0.98;;;18.00;50.40;;;;;;5076641;28;20647;-66
2021/04/15 09:25:42;;;;;;;7.00;1.60;;;18.00;50.40;;;;;;5075999;28;20166;-65
2021/04/15 09:28:13;;;;;;;3.83;0.70;;;18.00;50.50;;;;;;5094476;28;20170;-64
2021/04/15 09:31:12;;;;;;;6.53;0.80;;;18.00;50.60;;;;;;5076301;28;20703;-66
2021/04/15 09:33:59;;;;;;;4.93;0.80;;;18.00;50.60;;;;;;5076299;28;20174;-64
2021/04/15 09:37:02;;;;;;;5.05;0.80;;;18.00;50.70;;;;;;5094002;28;20208;-66
2021/04/15 09:39:49;;;;;;;3.13;0.98;;;18.00;50.50;;;;;;5093292;28;20173;-67
2021/04/15 09:42:33;;;;;;;3.15;0.68;;;18.00;50.50;;;;;;5094484;28;20174;-67
2021/04/15 09:45:36;;;;;;;3.80;0.90;;;18.00;50.50;;;;;;5094167;28;20169;-67
2021/04/15 09:48:29;;;;;;;2.83;1.08;;;18.10;50.50;;;;;;5094166;28;20197;-66
2021/04/15 09:51:15;;;;;;;3.05;0.95;;;18.10;50.50;;;;;;5076107;28;20174;-66
2021/04/15 09:54:11;;;;;;;1.95;0.70;;;18.00;50.40;;;;;;5059135;28;20180;-65
2021/04/15 09:56:55;;;;;;;1.75;0.80;;;18.00;50.50;;;;;;5093739;28;20174;-66
2021/04/15 09:59:40;;;;;;;3.75;0.93;;;18.00;50.60;;;;;;5093242;28;20188;-65
2021/04/15 10:02:11;;;;;;;1.92;0.70;;;18.00;50.40;;;;;;5093924;28;20184;-66
2021/04/15 10:04:42;;;;;;;1.85;0.88;;;18.20;50.10;;;;;;5059259;28;20166;-66
2021/04/15 10:07:27;;;;;;;2.63;0.73;;;18.20;50.10;;;;;;5059104;28;20193;-65
2021/04/15 10:10:02;;;;;;;1.65;0.80;;;18.20;50.30;;;;;;5075694;28;20192;-65
2021/04/15 10:12:46;;;;;;;1.55;0.82;;;18.10;50.40;;;;;;5074942;28;20185;-65
2021/04/15 10:15:27;;;;;;;2.47;0.60;;;18.10;50.50;;;;;;5057427;28;20206;-65
2021/04/15 10:18:08;;;;;;;2.72;0.80;;;18.00;50.60;;;;;;5091002;28;20252;-65
2021/04/15 10:20:57;;;;;;;1.13;0.70;;;18.10;50.70;;;;;;5091519;28;20177;-65
2021/04/15 10:23:57;;;;;;;1.25;0.75;;;18.00;50.70;;;;;;5072952;28;20186;-65
2021/04/15 10:26:51;;;;;;;1.33;0.80;;;18.10;50.70;;;;;;5078300;28;20196;-69
2021/04/15 10:29:44;;;;;;;1.45;0.80;;;18.00;50.60;;;;;;5092479;28;20174;-65
2021/04/15 10:32:31;;;;;;;2.50;0.98;;;18.00;50.60;;;;;;5093377;28;20230;-65
2021/04/15 10:35:34;;;;;;;1.17;0.73;;;17.90;50.50;;;;;;5091460;28;20216;-67
2021/04/15 10:38:02;;;;;;;1.75;0.85;;;17.90;50.40;;;;;;5072009;28;20552;-66
2021/04/15 10:41:05;;;;;;;3.15;0.80;;;18.00;50.40;;;;;;5087997;28;20201;-69
2021/04/15 10:43:31;;;;;;;1.27;0.70;;;18.00;50.10;;;;;;5080526;28;20204;-68
2021/04/15 10:46:06;;;;;;;3.42;1.30;;;18.10;50.10;;;;;;5092877;28;20629;-65
2021/04/15 10:48:43;;;;;;;3.88;1.08;;;18.20;50.00;;;;;;5092186;28;20180;-65
2021/04/15 10:51:29;;;;;;;4.75;0.90;;;18.20;49.70;;;;;;5063254;28;20162;-64
2021/04/15 10:53:57;;;;;;;5.45;1.55;;;18.30;49.70;;;;;;5058894;28;20569;-64
2021/04/15 10:56:23;;;;;;;2.67;0.90;;;18.40;49.60;;;;;;5053907;28;20181;-64
2021/04/15 10:59:07;;;;;;;5.47;0.70;;;18.40;49.60;;;;;;5072018;28;20166;-67
2021/04/15 11:01:46;;;;;;;0.88;0.70;;;18.40;49.70;;;;;;5073314;28;20227;-68
2021/04/15 11:04:12;;;;;;;2.60;0.73;;;18.30;49.70;;;;;;5058099;28;20697;-68
2021/04/15 11:06:41;;;;;;;1.95;0.73;;;18.30;49.80;;;;;;5092832;28;20166;-68
2021/04/15 11:09:34;;;;;;;2.50;0.80;;;18.20;49.80;;;;;;5075033;28;20621;-67
2021/04/15 11:12:03;;;;;;;2.90;0.77;;;18.20;49.80;;;;;;5074954;28;20264;-64
2021/04/15 11:14:34;;;;;;;2.08;0.80;;;18.20;49.80;;;;;;5074620;28;20576;-64
2021/04/15 11:17:01;;;;;;;1.45;0.85;;;18.10;49.90;;;;;;5050560;28;20301;-64
2021/04/15 11:19:29;;;;;;;3.67;0.75;;;18.30;49.70;;;;;;5051311;28;20167;-64
2021/04/15 11:21:57;;;;;;;0.98;0.47;;;18.30;49.50;;;;;;5051276;28;20250;-64
2021/04/15 11:24:31;;;;;;;0.82;0.82;;;18.30;49.50;;;;;;5050357;28;20188;-64
2021/04/15 11:26:59;;;;;;;1.38;0.50;;;18.30;49.50;;;;;;5034507;28;20537;-64
2021/04/15 11:29:35;;;;;;;2.05;1.00;;;18.40;49.40;;;;;;5052353;28;20210;-65
2021/04/15 11:32:01;;;;;;;1.95;0.82;;;18.30;49.40;;;;;;5050602;28;20701;-67
2021/04/15 11:34:27;;;;;;;0.90;0.70;;;18.20;49.60;;;;;;5050830;28;20340;-66
2021/04/15 11:37:00;;;;;;;0.63;0.50;;;18.20;49.70;;;;;;5051235;28;20216;-65
2021/04/15 11:39:29;;;;;;;1.27;0.70;;;18.10;49.70;;;;;;5033746;28;20172;-64
2021/04/15 11:41:59;;;;;;;1.42;0.50;;;18.10;49.70;;;;;;5034468;28;20170;-65
2021/04/15 11:44:27;;;;;;;1.08;0.68;;;18.10;49.70;;;;;;5051021;28;20308;-65
2021/04/15 11:47:00;;;;;;;1.02;0.70;;;18.10;49.80;;;;;;5051729;28;20166;-64
2021/04/15 11:49:33;;;;;;;1.88;0.77;;;18.00;49.80;;;;;;5050924;28;20171;-64
2021/04/15 11:52:00;;;;;;;1.15;0.70;;;18.00;49.80;;;;;;5062068;28;20222;-64
2021/04/15 11:54:34;;;;;;;1.02;0.57;;;18.10;49.80;;;;;;5070660;28;20202;-64
2021/04/15 11:57:18;;;;;;;1.95;0.80;;;18.20;49.60;;;;;;5072314;28;20166;-64
2021/04/15 12:00:14;;;;;;;0.90;0.65;;;18.20;49.50;;;;;;5071677;28;20181;-66
2021/04/15 12:02:49;;;;;;;0.70;0.57;;;18.20;49.30;;;;;;5065312;28;20599;-65
2021/04/15 12:05:30;;;;;;;2.28;0.80;;;18.30;49.10;;;;;;5038338;28;20316;-65
2021/04/15 12:08:15;;;;;;;1.23;0.50;;;18.40;49.00;;;;;;5070194;28;20177;-66
2021/04/15 12:10:51;;;;;;;2.08;0.60;;;18.40;48.80;;;;;;5075375;28;20167;-65
2021/04/15 12:13:22;;;;;;;0.63;0.63;;;18.50;48.80;;;;;;5074322;28;20702;-65
2021/04/15 12:15:54;;;;;;;1.27;0.77;;;18.60;48.80;;;;;;5074505;28;20256;-65
2021/04/15 12:18:28;;;;;;;0.55;0.50;;;18.60;48.70;;;;;;5057935;28;20218;-66
2021/04/15 12:20:58;;;;;;;1.23;0.80;;;18.60;48.70;;;;;;5075234;28;20170;-65
2021/04/15 12:23:23;;;;;;;2.05;0.70;;;18.60;48.60;;;;;;5057908;28;20687;-65
2021/04/15 12:26:05;;;;;;;0.85;0.70;;;18.70;48.50;;;;;;5075550;28;20171;-65
2021/04/15 12:28:42;;;;;;;0.70;0.50;;;18.70;48.50;;;;;;5058375;28;20173;-67
2021/04/15 12:31:13;;;;;;;1.42;0.85;;;18.70;49.20;;;;;;5059040;28;20173;-67
2021/04/15 12:34:01;;;;;;;1.25;0.80;;;18.60;48.60;;;;;;5075251;28;20190;-67
2021/04/15 12:36:29;;;;;;;0.68;0.68;;;18.60;48.60;;;;;;5060092;28;20249;-67
2021/04/15 12:39:04;;;;;;;1.38;0.73;;;18.50;48.80;;;;;;5057799;28;20177;-65
2021/04/15 12:41:30;;;;;;;1.20;0.60;;;18.50;48.90;;;;;;5057948;28;20660;-65
2021/04/15 12:44:24;;;;;;;0.35;0.35;;;18.40;49.00;;;;;;5057570;28;20257;-67
2021/04/15 12:46:50;;;;;;;1.02;0.68;;;18.30;49.10;;;;;;5054196;28;20552;-65
2021/04/15 12:49:17;;;;;;;1.42;0.70;;;18.40;49.60;;;;;;5055601;28;20163;-66
2021/04/15 12:51:46;;;;;;;1.65;0.70;;;18.60;48.80;;;;;;5043590;28;20207;-65
2021/04/15 12:54:13;;;;;;;1.08;0.90;;;18.50;48.80;;;;;;5028876;28;20641;-64
2021/04/15 12:56:41;;;;;;;1.48;0.90;;;18.40;49.00;;;;;;5072991;28;20685;-64
2021/04/15 12:59:09;;;;;;;0.60;0.60;;;18.30;49.00;;;;;;5073710;28;20177;-65
2021/04/15 13:01:35;;;;;;;1.33;0.75;;;18.30;49.20;;;;;;5056827;28;20174;-65
2021/04/15 13:04:14;;;;;;;1.13;0.70;;;18.30;49.00;;;;;;5072713;28;20618;-66
2021/04/15 13:07:06;;;;;;;1.48;0.65;;;18.50;48.90;;;;;;5073310;28;20209;-65
2021/04/15 13:09:33;;;;;;;1.27;0.70;;;18.60;48.70;;;;;;5073024;28;20266;-65
2021/04/15 13:11:59;;;;;;;1.02;0.68;;;18.60;48.60;;;;;;5053395;28;20175;-65
2021/04/15 13:14:38;;;;;;;1.75;0.85;;;18.70;48.70;;;;;;5036639;28;20248;-65
2021/04/15 13:17:04;;;;;;;1.40;0.60;;;18.70;48.60;;;;;;5033939;28;20260;-65
2021/04/15 13:19:32;;;;;;;1.63;0.80;;;18.70;48.70;;;;;;5033076;28;20180;-65
2021/04/15 13:22:13;;;;;;;0.85;0.68;;;18.80;48.60;;;;;;5016129;28;20218;-65
2021/04/15 13:24:44;;;;;;;0.75;0.70;;;19.00;48.40;;;;;;5016166;28;20503;-66
2021/04/15 13:27:35;;;;;;;2.10;0.70;;;18.90;48.40;;;;;;5017760;28;20553;-65
2021/04/15 13:30:38;;;;;;;2.00;0.60;;;18.80;48.50;;;;;;5054350;28;20174;-65
2021/04/15 13:33:11;;;;;;;1.70;0.77;;;18.70;48.80;;;;;;5054407;28;20645;-64
2021/04/15 13:35:58;;;;;;;2.60;0.68;;;18.50;48.90;;;;;;5052814;28;20203;-65
2021/04/15 13:39:00;;;;;;;0.82;0.80;;;18.50;49.10;;;;;;5052121;28;20175;-66
2021/04/15 13:41:24;;;;;;;1.10;0.57;;;18.40;49.20;;;;;;5050852;28;20187;-66